sensor_id;sensor_type;location;lat;lon;timestamp;pressure;altitude;pressure_sealevel;temperature;humidity
58761;BME280;44529;47.464;19.014;2023-05-14T00:00:47;100714.50;;;12.17;91.59
58761;BME280;44529;47.464;19.014;2023-05-14T00:03:50;100709.38;;;12.16;89.91
58761;BME280;44529;47.464;19.014;2023-05-14T00:06:52;100701.13;;;12.21;89.82
58761;BME280;44529;47.464;19.014;2023-05-14T00:09:56;100701.13;;;12.21;89.83
58761;BME280;44529;47.464;19.014;2023-05-14T00:12:58;100704.63;;;12.22;90.26
58761;BME280;44529;47.464;19.014;2023-05-14T00:16:01;100698.25;;;12.17;90.90
58761;BME280;44529;47.464;19.014;2023-05-14T00:19:03;100693.28;;;12.19;89.83
58761;BME280;44529;47.464;19.014;2023-05-14T00:22:05;100688.34;;;12.22;88.58
58761;BME280;44529;47.464;19.014;2023-05-14T00:25:08;100683.91;;;12.26;88.22
58761;BME280;44529;47.464;19.014;2023-05-14T00:28:10;100697.41;;;12.17;89.68
58761;BME280;44529;47.464;19.014;2023-05-14T00:31:13;100688.63;;;12.11;89.76
58761;BME280;44529;47.464;19.014;2023-05-14T00:34:16;100690.84;;;12.09;90.67
58761;BME280;44529;47.464;19.014;2023-05-14T00:37:18;100677.16;;;12.14;90.16
58761;BME280;44529;47.464;19.014;2023-05-14T00:40:24;100687.00;;;12.10;90.71
58761;BME280;44529;47.464;19.014;2023-05-14T00:43:27;100679.75;;;12.19;88.55
58761;BME280;44529;47.464;19.014;2023-05-14T00:46:30;100682.25;;;12.16;88.67
58761;BME280;44529;47.464;19.014;2023-05-14T00:49:33;100669.22;;;12.18;88.39
58761;BME280;44529;47.464;19.014;2023-05-14T00:52:37;100669.56;;;12.25;87.39
58761;BME280;44529;47.464;19.014;2023-05-14T00:55:40;100670.75;;;12.10;88.14
58761;BME280;44529;47.464;19.014;2023-05-14T00:58:43;100666.63;;;12.13;88.38
58761;BME280;44529;47.464;19.014;2023-05-14T01:01:45;100658.94;;;12.06;89.27
58761;BME280;44529;47.464;19.014;2023-05-14T01:04:48;100654.81;;;12.09;88.91
58761;BME280;44529;47.464;19.014;2023-05-14T01:08:00;100654.03;;;12.17;88.60
58761;BME280;44529;47.464;19.014;2023-05-14T01:11:08;100651.03;;;12.18;87.81
58761;BME280;44529;47.464;19.014;2023-05-14T01:17:17;100650.41;;;12.22;87.69
58761;BME280;44529;47.464;19.014;2023-05-14T01:20:21;100645.28;;;12.20;88.61
58761;BME280;44529;47.464;19.014;2023-05-14T01:23:24;100641.44;;;12.12;89.30
58761;BME280;44529;47.464;19.014;2023-05-14T01:26:27;100645.25;;;12.11;89.60
58761;BME280;44529;47.464;19.014;2023-05-14T01:29:32;100636.97;;;12.16;88.63
58761;BME280;44529;47.464;19.014;2023-05-14T01:32:38;100624.94;;;12.00;89.81
58761;BME280;44529;47.464;19.014;2023-05-14T01:35:42;100632.44;;;12.03;89.33
58761;BME280;44529;47.464;19.014;2023-05-14T01:38:46;100629.91;;;11.98;90.32
58761;BME280;44529;47.464;19.014;2023-05-14T01:41:50;100626.69;;;11.96;89.04
58761;BME280;44529;47.464;19.014;2023-05-14T01:44:53;100614.72;;;11.97;88.93
58761;BME280;44529;47.464;19.014;2023-05-14T01:47:56;100608.03;;;11.95;89.18
58761;BME280;44529;47.464;19.014;2023-05-14T01:50:59;100607.66;;;11.87;89.92
58761;BME280;44529;47.464;19.014;2023-05-14T01:54:02;100606.91;;;11.96;89.75
58761;BME280;44529;47.464;19.014;2023-05-14T01:57:04;100586.59;;;11.84;89.39
58761;BME280;44529;47.464;19.014;2023-05-14T02:00:07;100580.38;;;11.84;89.86
58761;BME280;44529;47.464;19.014;2023-05-14T02:03:14;100571.97;;;11.85;89.45
58761;BME280;44529;47.464;19.014;2023-05-14T02:06:17;100578.88;;;11.78;89.97
58761;BME280;44529;47.464;19.014;2023-05-14T02:09:19;100578.06;;;11.69;90.19
58761;BME280;44529;47.464;19.014;2023-05-14T02:12:21;100586.00;;;11.65;91.00
58761;BME280;44529;47.464;19.014;2023-05-14T02:15:24;100579.22;;;11.76;90.20
58761;BME280;44529;47.464;19.014;2023-05-14T02:18:26;100578.53;;;11.71;90.60
58761;BME280;44529;47.464;19.014;2023-05-14T02:21:28;100579.34;;;11.71;90.86
58761;BME280;44529;47.464;19.014;2023-05-14T02:24:31;100577.06;;;11.64;91.43
58761;BME280;44529;47.464;19.014;2023-05-14T02:27:33;100579.94;;;11.59;91.65
58761;BME280;44529;47.464;19.014;2023-05-14T02:30:35;100584.72;;;11.62;90.95
58761;BME280;44529;47.464;19.014;2023-05-14T02:33:38;100578.19;;;11.63;90.86
58761;BME280;44529;47.464;19.014;2023-05-14T02:36:40;100571.41;;;11.52;92.57
58761;BME280;44529;47.464;19.014;2023-05-14T02:39:42;100575.91;;;11.57;92.81
58761;BME280;44529;47.464;19.014;2023-05-14T02:42:45;100571.41;;;11.52;93.11
58761;BME280;44529;47.464;19.014;2023-05-14T02:45:47;100573.03;;;11.53;92.33
58761;BME280;44529;47.464;19.014;2023-05-14T02:48:49;100576.91;;;11.61;92.04
58761;BME280;44529;47.464;19.014;2023-05-14T02:51:52;100575.59;;;11.58;91.73
58761;BME280;44529;47.464;19.014;2023-05-14T02:54:55;100570.00;;;11.55;92.32
58761;BME280;44529;47.464;19.014;2023-05-14T02:57:57;100569.88;;;11.60;92.21
58761;BME280;44529;47.464;19.014;2023-05-14T03:00:59;100576.94;;;11.70;91.24
58761;BME280;44529;47.464;19.014;2023-05-14T03:04:03;100562.28;;;11.71;91.34
58761;BME280;44529;47.464;19.014;2023-05-14T03:07:05;100569.44;;;11.66;90.60
58761;BME280;44529;47.464;19.014;2023-05-14T03:10:08;100573.06;;;11.62;91.79
58761;BME280;44529;47.464;19.014;2023-05-14T03:13:10;100569.09;;;11.59;91.60
58761;BME280;44529;47.464;19.014;2023-05-14T03:16:13;100566.63;;;11.49;92.96
58761;BME280;44529;47.464;19.014;2023-05-14T03:19:15;100571.50;;;11.61;91.47
58761;BME280;44529;47.464;19.014;2023-05-14T03:22:18;100562.06;;;11.58;92.08
58761;BME280;44529;47.464;19.014;2023-05-14T03:25:21;100571.81;;;11.59;91.74
58761;BME280;44529;47.464;19.014;2023-05-14T03:28:25;100567.09;;;11.74;91.20
58761;BME280;44529;47.464;19.014;2023-05-14T03:31:28;100563.72;;;11.68;91.08
58761;BME280;44529;47.464;19.014;2023-05-14T03:34:30;100558.16;;;11.73;90.81
58761;BME280;44529;47.464;19.014;2023-05-14T03:37:33;100564.16;;;11.61;91.88
58761;BME280;44529;47.464;19.014;2023-05-14T03:40:35;100555.91;;;11.66;91.32
58761;BME280;44529;47.464;19.014;2023-05-14T03:43:37;100568.78;;;11.61;92.05
58761;BME280;44529;47.464;19.014;2023-05-14T03:46:40;100573.25;;;11.65;92.12
58761;BME280;44529;47.464;19.014;2023-05-14T03:49:42;100563.53;;;11.64;91.35
58761;BME280;44529;47.464;19.014;2023-05-14T03:52:45;100562.25;;;11.62;92.15
58761;BME280;44529;47.464;19.014;2023-05-14T03:55:47;100548.78;;;11.79;90.65
58761;BME280;44529;47.464;19.014;2023-05-14T03:58:51;100544.03;;;11.85;89.45
58761;BME280;44529;47.464;19.014;2023-05-14T04:01:53;100542.78;;;11.91;89.67
58761;BME280;44529;47.464;19.014;2023-05-14T04:04:56;100548.50;;;11.81;88.95
58761;BME280;44529;47.464;19.014;2023-05-14T04:07:59;100553.09;;;11.80;89.36
58761;BME280;44529;47.464;19.014;2023-05-14T04:11:02;100548.66;;;11.84;88.60
58761;BME280;44529;47.464;19.014;2023-05-14T04:14:04;100555.06;;;11.88;87.32
58761;BME280;44529;47.464;19.014;2023-05-14T04:17:07;100545.47;;;11.82;88.38
58761;BME280;44529;47.464;19.014;2023-05-14T04:20:09;100548.28;;;11.77;88.44
58761;BME280;44529;47.464;19.014;2023-05-14T04:23:12;100543.50;;;11.74;87.44
58761;BME280;44529;47.464;19.014;2023-05-14T04:26:14;100538.56;;;11.76;87.69
58761;BME280;44529;47.464;19.014;2023-05-14T04:29:16;100548.19;;;11.82;87.67
58761;BME280;44529;47.464;19.014;2023-05-14T04:32:18;100551.88;;;11.86;86.66
58761;BME280;44529;47.464;19.014;2023-05-14T04:35:21;100535.13;;;11.84;87.18
58761;BME280;44529;47.464;19.014;2023-05-14T04:38:26;100535.44;;;11.83;88.28
58761;BME280;44529;47.464;19.014;2023-05-14T04:41:29;100528.84;;;11.75;88.96
58761;BME280;44529;47.464;19.014;2023-05-14T04:44:33;100554.34;;;11.74;87.85
58761;BME280;44529;47.464;19.014;2023-05-14T04:47:35;100544.31;;;11.75;87.59
58761;BME280;44529;47.464;19.014;2023-05-14T04:50:38;100542.37;;;11.75;87.83
58761;BME280;44529;47.464;19.014;2023-05-14T04:53:40;100542.97;;;11.86;86.87
58761;BME280;44529;47.464;19.014;2023-05-14T04:56:42;100533.06;;;11.90;86.76
58761;BME280;44529;47.464;19.014;2023-05-14T04:59:45;100546.28;;;11.83;87.03
58761;BME280;44529;47.464;19.014;2023-05-14T05:02:47;100535.63;;;11.86;86.61
58761;BME280;44529;47.464;19.014;2023-05-14T05:05:49;100537.22;;;11.87;86.46
58761;BME280;44529;47.464;19.014;2023-05-14T05:08:52;100530.50;;;11.85;86.83
58761;BME280;44529;47.464;19.014;2023-05-14T05:11:55;100535.44;;;11.83;87.27
58761;BME280;44529;47.464;19.014;2023-05-14T05:14:57;100534.12;;;11.80;90.32
58761;BME280;44529;47.464;19.014;2023-05-14T05:17:59;100525.22;;;11.80;89.07
58761;BME280;44529;47.464;19.014;2023-05-14T05:21:02;100533.62;;;11.78;89.97
58761;BME280;44529;47.464;19.014;2023-05-14T05:24:06;100523.47;;;11.84;89.70
58761;BME280;44529;47.464;19.014;2023-05-14T05:27:08;100525.03;;;11.76;90.10
58761;BME280;44529;47.464;19.014;2023-05-14T05:30:11;100525.50;;;11.78;89.94
58761;BME280;44529;47.464;19.014;2023-05-14T05:33:13;100526.84;;;11.81;90.33
58761;BME280;44529;47.464;19.014;2023-05-14T05:36:16;100528.53;;;11.77;89.98
58761;BME280;44529;47.464;19.014;2023-05-14T05:39:18;100528.91;;;11.84;87.20
58761;BME280;44529;47.464;19.014;2023-05-14T05:42:20;100520.78;;;11.84;89.21
58761;BME280;44529;47.464;19.014;2023-05-14T05:45:23;100522.50;;;11.80;89.56
58761;BME280;44529;47.464;19.014;2023-05-14T05:48:25;100517.47;;;11.87;89.12
58761;BME280;44529;47.464;19.014;2023-05-14T05:51:28;100526.72;;;11.95;89.51
58761;BME280;44529;47.464;19.014;2023-05-14T05:54:31;100526.09;;;11.98;88.72
58761;BME280;44529;47.464;19.014;2023-05-14T05:57:33;100525.28;;;11.97;88.60
58761;BME280;44529;47.464;19.014;2023-05-14T06:00:35;100520.03;;;11.92;90.86
58761;BME280;44529;47.464;19.014;2023-05-14T06:03:38;100528.44;;;11.90;89.41
58761;BME280;44529;47.464;19.014;2023-05-14T06:06:40;100529.09;;;11.87;89.85
58761;BME280;44529;47.464;19.014;2023-05-14T06:09:43;100527.53;;;11.95;89.67
58761;BME280;44529;47.464;19.014;2023-05-14T06:12:45;100541.53;;;11.88;90.19
58761;BME280;44529;47.464;19.014;2023-05-14T06:15:47;100532.72;;;11.83;91.87
58761;BME280;44529;47.464;19.014;2023-05-14T06:18:49;100538.75;;;11.80;91.97
58761;BME280;44529;47.464;19.014;2023-05-14T06:21:53;100532.41;;;11.84;93.19
58761;BME280;44529;47.464;19.014;2023-05-14T06:24:56;100535.06;;;11.76;93.56
58761;BME280;44529;47.464;19.014;2023-05-14T06:27:59;100539.38;;;11.77;95.11
58761;BME280;44529;47.464;19.014;2023-05-14T06:31:01;100542.37;;;11.75;97.00
58761;BME280;44529;47.464;19.014;2023-05-14T06:34:03;100549.88;;;11.78;97.21
58761;BME280;44529;47.464;19.014;2023-05-14T06:37:05;100550.72;;;11.79;98.05
58761;BME280;44529;47.464;19.014;2023-05-14T06:40:08;100541.13;;;11.73;100.00
58761;BME280;44529;47.464;19.014;2023-05-14T06:43:11;100539.88;;;11.79;100.00
58761;BME280;44529;47.464;19.014;2023-05-14T06:46:14;100538.47;;;11.81;98.45
58761;BME280;44529;47.464;19.014;2023-05-14T06:49:16;100532.00;;;11.69;98.64
58761;BME280;44529;47.464;19.014;2023-05-14T06:52:19;100522.44;;;11.71;99.82
58761;BME280;44529;47.464;19.014;2023-05-14T06:55:21;100515.56;;;11.65;98.71
58761;BME280;44529;47.464;19.014;2023-05-14T06:58:23;100511.78;;;11.66;99.97
58761;BME280;44529;47.464;19.014;2023-05-14T07:01:26;100516.56;;;11.69;99.48
58761;BME280;44529;47.464;19.014;2023-05-14T07:04:29;100508.56;;;11.64;98.70
58761;BME280;44529;47.464;19.014;2023-05-14T07:07:31;100511.59;;;11.71;96.73
58761;BME280;44529;47.464;19.014;2023-05-14T07:10:33;100497.13;;;11.76;98.79
58761;BME280;44529;47.464;19.014;2023-05-14T07:13:36;100503.12;;;11.86;97.48
58761;BME280;44529;47.464;19.014;2023-05-14T07:16:38;100492.47;;;11.99;94.79
58761;BME280;44529;47.464;19.014;2023-05-14T07:19:41;100490.91;;;12.06;96.66
58761;BME280;44529;47.464;19.014;2023-05-14T07:22:43;100488.00;;;12.03;98.55
58761;BME280;44529;47.464;19.014;2023-05-14T07:25:45;100491.03;;;12.10;96.77
58761;BME280;44529;47.464;19.014;2023-05-14T07:28:48;100488.03;;;12.11;97.50
58761;BME280;44529;47.464;19.014;2023-05-14T07:31:50;100482.16;;;12.18;93.95
58761;BME280;44529;47.464;19.014;2023-05-14T07:34:53;100483.91;;;12.23;94.47
58761;BME280;44529;47.464;19.014;2023-05-14T07:37:55;100476.59;;;12.32;97.26
58761;BME280;44529;47.464;19.014;2023-05-14T07:40:57;100476.28;;;12.42;93.75
58761;BME280;44529;47.464;19.014;2023-05-14T07:43:59;100478.69;;;12.52;92.57
58761;BME280;44529;47.464;19.014;2023-05-14T07:47:02;100481.53;;;12.56;91.96
58761;BME280;44529;47.464;19.014;2023-05-14T07:50:05;100474.69;;;12.67;92.73
58761;BME280;44529;47.464;19.014;2023-05-14T07:53:08;100471.16;;;12.75;91.19
58761;BME280;44529;47.464;19.014;2023-05-14T07:56:10;100464.47;;;12.72;91.95
58761;BME280;44529;47.464;19.014;2023-05-14T07:59:12;100464.66;;;12.76;92.65
58761;BME280;44529;47.464;19.014;2023-05-14T08:02:15;100465.72;;;12.75;92.95
58761;BME280;44529;47.464;19.014;2023-05-14T08:05:18;100454.75;;;12.71;94.97
58761;BME280;44529;47.464;19.014;2023-05-14T08:08:20;100445.16;;;12.74;95.59
58761;BME280;44529;47.464;19.014;2023-05-14T08:11:23;100446.91;;;12.79;93.59
58761;BME280;44529;47.464;19.014;2023-05-14T08:14:25;100439.44;;;12.76;94.59
58761;BME280;44529;47.464;19.014;2023-05-14T08:17:27;100439.91;;;12.78;96.37
58761;BME280;44529;47.464;19.014;2023-05-14T08:20:30;100431.59;;;12.74;95.07
58761;BME280;44529;47.464;19.014;2023-05-14T08:23:32;100433.31;;;12.87;93.45
58761;BME280;44529;47.464;19.014;2023-05-14T08:26:34;100428.69;;;12.88;94.51
58761;BME280;44529;47.464;19.014;2023-05-14T08:29:37;100421.66;;;12.87;96.65
58761;BME280;44529;47.464;19.014;2023-05-14T08:32:39;100411.16;;;12.77;96.17
58761;BME280;44529;47.464;19.014;2023-05-14T08:35:42;100415.81;;;12.76;96.87
58761;BME280;44529;47.464;19.014;2023-05-14T08:38:44;100414.34;;;12.79;95.92
58761;BME280;44529;47.464;19.014;2023-05-14T08:41:47;100407.97;;;12.74;96.50
58761;BME280;44529;47.464;19.014;2023-05-14T08:45:02;100410.37;;;12.76;97.07
58761;BME280;44529;47.464;19.014;2023-05-14T08:48:06;100402.87;;;12.73;98.59
58761;BME280;44529;47.464;19.014;2023-05-14T08:51:10;100401.25;;;12.81;99.49
58761;BME280;44529;47.464;19.014;2023-05-14T08:54:15;100397.44;;;12.82;99.00
58761;BME280;44529;47.464;19.014;2023-05-14T08:57:19;100400.94;;;12.82;99.15
58761;BME280;44529;47.464;19.014;2023-05-14T09:00:25;100405.09;;;12.80;100.00
58761;BME280;44529;47.464;19.014;2023-05-14T09:03:28;100402.22;;;12.85;100.00
58761;BME280;44529;47.464;19.014;2023-05-14T09:06:32;100398.88;;;12.79;98.35
58761;BME280;44529;47.464;19.014;2023-05-14T09:09:34;100400.47;;;12.89;99.78
58761;BME280;44529;47.464;19.014;2023-05-14T09:12:37;100399.34;;;12.90;100.00
58761;BME280;44529;47.464;19.014;2023-05-14T09:15:39;100400.13;;;12.90;100.00
58761;BME280;44529;47.464;19.014;2023-05-14T09:18:43;100406.50;;;12.86;100.00
58761;BME280;44529;47.464;19.014;2023-05-14T09:21:47;100394.41;;;12.83;100.00
58761;BME280;44529;47.464;19.014;2023-05-14T09:25:07;100399.19;;;12.78;100.00
58761;BME280;44529;47.464;19.014;2023-05-14T09:28:10;100384.97;;;12.81;100.00
58761;BME280;44529;47.464;19.014;2023-05-14T09:31:13;100382.87;;;12.86;100.00
58761;BME280;44529;47.464;19.014;2023-05-14T09:34:29;100381.62;;;12.84;100.00
58761;BME280;44529;47.464;19.014;2023-05-14T09:37:35;100372.03;;;12.86;100.00
58761;BME280;44529;47.464;19.014;2023-05-14T09:40:38;100371.69;;;12.96;100.00
58761;BME280;44529;47.464;19.014;2023-05-14T09:43:40;100374.41;;;12.96;100.00
58761;BME280;44529;47.464;19.014;2023-05-14T09:46:43;100359.09;;;12.92;100.00
58761;BME280;44529;47.464;19.014;2023-05-14T09:49:47;100351.09;;;12.95;100.00
58761;BME280;44529;47.464;19.014;2023-05-14T09:52:49;100348.06;;;12.97;100.00
58761;BME280;44529;47.464;19.014;2023-05-14T09:55:52;100341.22;;;12.91;100.00
58761;BME280;44529;47.464;19.014;2023-05-14T09:58:54;100354.91;;;13.03;100.00
58761;BME280;44529;47.464;19.014;2023-05-14T10:01:57;100345.63;;;13.04;100.00
58761;BME280;44529;47.464;19.014;2023-05-14T10:05:01;100338.31;;;12.96;100.00
58761;BME280;44529;47.464;19.014;2023-05-14T10:08:09;100325.22;;;12.98;100.00
58761;BME280;44529;47.464;19.014;2023-05-14T10:11:17;100313.81;;;13.13;99.23
58761;BME280;44529;47.464;19.014;2023-05-14T10:14:35;100299.78;;;13.11;99.61
58761;BME280;44529;47.464;19.014;2023-05-14T11:14:22;100255.47;;;13.19;97.80
58761;BME280;44529;47.464;19.014;2023-05-14T11:17:28;100249.09;;;13.24;95.62
58761;BME280;44529;47.464;19.014;2023-05-14T11:20:30;100243.81;;;13.19;97.04
58761;BME280;44529;47.464;19.014;2023-05-14T11:23:34;100247.84;;;13.13;97.15
58761;BME280;44529;47.464;19.014;2023-05-14T11:26:36;100240.37;;;13.10;99.64
58761;BME280;44529;47.464;19.014;2023-05-14T11:29:42;100249.38;;;13.01;100.00
58761;BME280;44529;47.464;19.014;2023-05-14T11:32:47;100241.69;;;13.04;100.00
58761;BME280;44529;47.464;19.014;2023-05-14T11:35:50;100240.44;;;13.01;100.00
58761;BME280;44529;47.464;19.014;2023-05-14T11:38:52;100238.97;;;13.04;100.00
58761;BME280;44529;47.464;19.014;2023-05-14T11:41:56;100240.09;;;13.02;100.00
58761;BME280;44529;47.464;19.014;2023-05-14T11:44:58;100247.28;;;12.98;100.00
58761;BME280;44529;47.464;19.014;2023-05-14T11:48:10;100238.53;;;12.93;100.00
58761;BME280;44529;47.464;19.014;2023-05-14T11:51:12;100236.63;;;12.93;100.00
58761;BME280;44529;47.464;19.014;2023-05-14T11:54:15;100243.63;;;12.94;100.00
58761;BME280;44529;47.464;19.014;2023-05-14T11:57:18;100237.41;;;12.94;100.00
58761;BME280;44529;47.464;19.014;2023-05-14T12:00:22;100219.87;;;12.91;100.00
58761;BME280;44529;47.464;19.014;2023-05-14T12:03:26;100217.00;;;12.88;100.00
58761;BME280;44529;47.464;19.014;2023-05-14T12:06:31;100210.00;;;12.87;100.00
58761;BME280;44529;47.464;19.014;2023-05-14T12:09:36;100204.56;;;12.87;100.00
58761;BME280;44529;47.464;19.014;2023-05-14T12:12:44;100210.66;;;12.84;100.00
58761;BME280;44529;47.464;19.014;2023-05-14T12:15:54;100204.09;;;12.85;100.00
58761;BME280;44529;47.464;19.014;2023-05-14T12:19:00;100185.56;;;12.87;100.00
58761;BME280;44529;47.464;19.014;2023-05-14T12:22:03;100188.69;;;12.77;100.00
58761;BME280;44529;47.464;19.014;2023-05-14T12:25:10;100190.91;;;12.74;100.00
58761;BME280;44529;47.464;19.014;2023-05-14T12:28:18;100189.13;;;12.79;100.00
58761;BME280;44529;47.464;19.014;2023-05-14T12:31:27;100187.66;;;12.90;100.00
58761;BME280;44529;47.464;19.014;2023-05-14T12:34:29;100182.59;;;12.80;100.00
58761;BME280;44529;47.464;19.014;2023-05-14T12:37:32;100174.78;;;12.78;100.00
58761;BME280;44529;47.464;19.014;2023-05-14T12:40:35;100183.00;;;12.61;100.00
58761;BME280;44529;47.464;19.014;2023-05-14T12:43:41;100184.28;;;12.55;100.00
58761;BME280;44529;47.464;19.014;2023-05-14T12:46:44;100175.06;;;12.47;100.00
58761;BME280;44529;47.464;19.014;2023-05-14T12:49:46;100182.09;;;12.48;100.00
58761;BME280;44529;47.464;19.014;2023-05-14T12:52:48;100178.63;;;12.39;100.00
58761;BME280;44529;47.464;19.014;2023-05-14T12:55:51;100163.66;;;12.33;100.00
58761;BME280;44529;47.464;19.014;2023-05-14T12:58:54;100156.59;;;12.40;100.00
58761;BME280;44529;47.464;19.014;2023-05-14T13:01:57;100152.81;;;12.33;100.00
58761;BME280;44529;47.464;19.014;2023-05-14T13:04:59;100146.44;;;12.29;100.00
58761;BME280;44529;47.464;19.014;2023-05-14T13:08:03;100140.09;;;12.25;100.00
58761;BME280;44529;47.464;19.014;2023-05-14T13:11:06;100124.09;;;12.32;100.00
58761;BME280;44529;47.464;19.014;2023-05-14T13:14:09;100129.38;;;12.28;100.00
58761;BME280;44529;47.464;19.014;2023-05-14T13:17:11;100135.37;;;12.42;100.00
58761;BME280;44529;47.464;19.014;2023-05-14T13:20:14;100131.41;;;12.40;100.00
58761;BME280;44529;47.464;19.014;2023-05-14T13:23:18;100118.13;;;12.47;100.00
58761;BME280;44529;47.464;19.014;2023-05-14T13:26:21;100114.00;;;12.41;100.00
58761;BME280;44529;47.464;19.014;2023-05-14T13:29:23;100107.16;;;12.43;100.00
58761;BME280;44529;47.464;19.014;2023-05-14T13:32:25;100100.72;;;12.48;100.00
58761;BME280;44529;47.464;19.014;2023-05-14T13:35:28;100096.44;;;12.47;100.00
58761;BME280;44529;47.464;19.014;2023-05-14T13:38:30;100099.94;;;12.47;100.00
58761;BME280;44529;47.464;19.014;2023-05-14T13:41:33;100096.31;;;12.43;100.00
58761;BME280;44529;47.464;19.014;2023-05-14T13:44:38;100084.72;;;12.55;100.00
58761;BME280;44529;47.464;19.014;2023-05-14T13:47:41;100082.53;;;12.48;100.00
58761;BME280;44529;47.464;19.014;2023-05-14T13:50:43;100076.94;;;12.54;100.00
58761;BME280;44529;47.464;19.014;2023-05-14T13:53:46;100073.81;;;12.43;100.00
58761;BME280;44529;47.464;19.014;2023-05-14T13:56:48;100066.00;;;12.41;100.00
58761;BME280;44529;47.464;19.014;2023-05-14T13:59:50;100059.78;;;12.41;100.00
58761;BME280;44529;47.464;19.014;2023-05-14T14:02:52;100056.72;;;12.42;100.00
58761;BME280;44529;47.464;19.014;2023-05-14T14:05:55;100056.94;;;12.37;100.00
58761;BME280;44529;47.464;19.014;2023-05-14T14:08:57;100060.72;;;12.45;100.00
58761;BME280;44529;47.464;19.014;2023-05-14T14:12:02;100047.16;;;12.45;100.00
58761;BME280;44529;47.464;19.014;2023-05-14T14:15:05;100044.25;;;12.50;100.00
58761;BME280;44529;47.464;19.014;2023-05-14T14:18:08;100045.84;;;12.51;100.00
58761;BME280;44529;47.464;19.014;2023-05-14T14:21:10;100056.44;;;12.44;100.00
58761;BME280;44529;47.464;19.014;2023-05-14T14:24:13;100061.84;;;12.44;100.00
58761;BME280;44529;47.464;19.014;2023-05-14T14:27:15;100056.88;;;12.46;100.00
58761;BME280;44529;47.464;19.014;2023-05-14T14:30:17;100051.47;;;12.46;100.00
58761;BME280;44529;47.464;19.014;2023-05-14T14:33:20;100054.22;;;12.37;100.00
58761;BME280;44529;47.464;19.014;2023-05-14T14:36:22;100050.06;;;12.40;100.00
58761;BME280;44529;47.464;19.014;2023-05-14T14:39:24;100047.63;;;12.47;100.00
58761;BME280;44529;47.464;19.014;2023-05-14T14:42:27;100043.47;;;12.50;100.00
58761;BME280;44529;47.464;19.014;2023-05-14T14:45:29;100048.91;;;12.50;100.00
58761;BME280;44529;47.464;19.014;2023-05-14T14:48:34;100046.50;;;12.48;100.00
58761;BME280;44529;47.464;19.014;2023-05-14T14:51:38;100028.28;;;12.48;100.00
58761;BME280;44529;47.464;19.014;2023-05-14T14:54:41;100035.00;;;12.51;100.00
58761;BME280;44529;47.464;19.014;2023-05-14T14:57:44;100037.09;;;12.45;100.00
58761;BME280;44529;47.464;19.014;2023-05-14T15:00:49;100026.06;;;12.51;100.00
58761;BME280;44529;47.464;19.014;2023-05-14T15:03:51;100018.19;;;12.37;100.00
58761;BME280;44529;47.464;19.014;2023-05-14T15:06:54;100012.28;;;12.35;100.00
58761;BME280;44529;47.464;19.014;2023-05-14T15:09:56;100007.34;;;12.37;100.00
58761;BME280;44529;47.464;19.014;2023-05-14T15:12:59;100002.22;;;12.35;100.00
58761;BME280;44529;47.464;19.014;2023-05-14T15:16:01;100003.22;;;12.31;100.00
58761;BME280;44529;47.464;19.014;2023-05-14T15:19:03;99992.50;;;12.34;100.00
58761;BME280;44529;47.464;19.014;2023-05-14T15:22:05;99997.66;;;12.27;100.00
58761;BME280;44529;47.464;19.014;2023-05-14T15:25:08;99995.13;;;12.22;100.00
58761;BME280;44529;47.464;19.014;2023-05-14T15:28:11;99992.13;;;12.24;100.00
58761;BME280;44529;47.464;19.014;2023-05-14T15:31:13;99992.59;;;12.17;100.00
58761;BME280;44529;47.464;19.014;2023-05-14T15:34:15;99995.19;;;12.13;100.00
58761;BME280;44529;47.464;19.014;2023-05-14T15:37:18;99993.28;;;12.14;100.00
58761;BME280;44529;47.464;19.014;2023-05-14T15:40:20;100004.28;;;12.17;100.00
58761;BME280;44529;47.464;19.014;2023-05-14T15:43:22;100002.87;;;12.11;100.00
58761;BME280;44529;47.464;19.014;2023-05-14T15:46:25;99998.41;;;12.07;100.00
58761;BME280;44529;47.464;19.014;2023-05-14T15:49:27;99999.06;;;12.04;100.00
58761;BME280;44529;47.464;19.014;2023-05-14T15:52:30;99992.72;;;12.00;100.00
58761;BME280;44529;47.464;19.014;2023-05-14T15:55:32;99975.66;;;11.99;100.00
58761;BME280;44529;47.464;19.014;2023-05-14T15:58:34;99957.00;;;11.98;100.00
58761;BME280;44529;47.464;19.014;2023-05-14T16:01:37;99950.63;;;12.02;100.00
58761;BME280;44529;47.464;19.014;2023-05-14T16:04:39;99940.91;;;12.01;100.00
58761;BME280;44529;47.464;19.014;2023-05-14T16:07:42;99926.47;;;11.88;100.00
58761;BME280;44529;47.464;19.014;2023-05-14T16:10:44;99925.97;;;11.95;100.00
58761;BME280;44529;47.464;19.014;2023-05-14T16:13:47;99930.59;;;11.95;100.00
58761;BME280;44529;47.464;19.014;2023-05-14T16:16:49;99938.78;;;11.86;100.00
58761;BME280;44529;47.464;19.014;2023-05-14T16:19:52;99932.69;;;11.89;100.00
58761;BME280;44529;47.464;19.014;2023-05-14T16:22:57;99933.03;;;11.87;100.00
58761;BME280;44529;47.464;19.014;2023-05-14T16:25:59;99940.63;;;11.94;100.00
58761;BME280;44529;47.464;19.014;2023-05-14T16:29:02;99948.44;;;11.96;100.00
58761;BME280;44529;47.464;19.014;2023-05-14T16:32:05;99942.66;;;11.97;100.00
58761;BME280;44529;47.464;19.014;2023-05-14T16:35:08;99937.31;;;11.88;100.00
58761;BME280;44529;47.464;19.014;2023-05-14T16:38:10;99938.09;;;11.89;100.00
58761;BME280;44529;47.464;19.014;2023-05-14T16:41:12;99931.56;;;11.90;100.00